sensor_id;sensor_type;location;lat;lon;timestamp;temperature;humidity
15384;DHT22;7790;53.022;12.968;2024-02-26T00:03:59;22.70;44.60
15384;DHT22;7790;53.022;12.968;2024-02-26T00:08:00;22.70;44.50
15384;DHT22;7790;53.022;12.968;2024-02-26T00:12:04;22.70;44.50
15384;DHT22;7790;53.022;12.968;2024-02-26T00:16:05;22.70;44.60
15384;DHT22;7790;53.022;12.968;2024-02-26T00:20:07;22.70;44.40
15384;DHT22;7790;53.022;12.968;2024-02-26T00:24:10;22.70;44.30
15384;DHT22;7790;53.022;12.968;2024-02-26T00:28:11;22.70;44.30
15384;DHT22;7790;53.022;12.968;2024-02-26T00:32:14;22.60;44.30
15384;DHT22;7790;53.022;12.968;2024-02-26T00:36:15;22.70;44.30
15384;DHT22;7790;53.022;12.968;2024-02-26T00:40:16;22.70;44.10
15384;DHT22;7790;53.022;12.968;2024-02-26T00:44:17;22.70;44.00
15384;DHT22;7790;53.022;12.968;2024-02-26T00:48:17;22.70;44.00
15384;DHT22;7790;53.022;12.968;2024-02-26T00:52:18;22.70;44.00
15384;DHT22;7790;53.022;12.968;2024-02-26T00:56:19;22.70;44.00
15384;DHT22;7790;53.022;12.968;2024-02-26T01:00:20;22.70;44.10
15384;DHT22;7790;53.022;12.968;2024-02-26T01:04:21;22.70;44.00
15384;DHT22;7790;53.022;12.968;2024-02-26T01:08:22;22.70;44.20
15384;DHT22;7790;53.022;12.968;2024-02-26T01:12:22;22.70;44.00
15384;DHT22;7790;53.022;12.968;2024-02-26T01:16:23;22.70;44.00
15384;DHT22;7790;53.022;12.968;2024-02-26T01:20:24;22.70;43.90
15384;DHT22;7790;53.022;12.968;2024-02-26T01:24:25;22.70;44.00
15384;DHT22;7790;53.022;12.968;2024-02-26T01:28:26;22.80;43.80
15384;DHT22;7790;53.022;12.968;2024-02-26T01:32:27;22.70;43.60
15384;DHT22;7790;53.022;12.968;2024-02-26T01:36:27;22.70;43.60
15384;DHT22;7790;53.022;12.968;2024-02-26T01:40:28;22.70;43.50
15384;DHT22;7790;53.022;12.968;2024-02-26T01:44:30;22.70;43.70
15384;DHT22;7790;53.022;12.968;2024-02-26T01:48:31;22.70;43.70
15384;DHT22;7790;53.022;12.968;2024-02-26T01:52:32;22.70;43.80
15384;DHT22;7790;53.022;12.968;2024-02-26T01:56:35;22.70;43.00
15384;DHT22;7790;53.022;12.968;2024-02-26T02:00:37;22.70;43.30
15384;DHT22;7790;53.022;12.968;2024-02-26T02:04:39;22.80;43.20
15384;DHT22;7790;53.022;12.968;2024-02-26T02:08:40;22.80;43.00
15384;DHT22;7790;53.022;12.968;2024-02-26T02:12:41;22.80;42.80
15384;DHT22;7790;53.022;12.968;2024-02-26T02:16:42;22.80;43.00
15384;DHT22;7790;53.022;12.968;2024-02-26T02:20:43;22.80;43.00
15384;DHT22;7790;53.022;12.968;2024-02-26T02:24:44;22.80;42.80
15384;DHT22;7790;53.022;12.968;2024-02-26T02:28:46;22.80;42.90
15384;DHT22;7790;53.022;12.968;2024-02-26T02:32:47;22.80;42.80
15384;DHT22;7790;53.022;12.968;2024-02-26T02:36:51;22.80;43.00
15384;DHT22;7790;53.022;12.968;2024-02-26T02:40:52;22.80;42.90
15384;DHT22;7790;53.022;12.968;2024-02-26T02:44:53;22.90;42.80
15384;DHT22;7790;53.022;12.968;2024-02-26T02:48:54;22.90;43.10
15384;DHT22;7790;53.022;12.968;2024-02-26T02:52:55;22.90;43.20
15384;DHT22;7790;53.022;12.968;2024-02-26T02:56:56;22.90;43.20
15384;DHT22;7790;53.022;12.968;2024-02-26T03:00:57;22.90;43.10
15384;DHT22;7790;53.022;12.968;2024-02-26T03:04:58;22.90;43.30
15384;DHT22;7790;53.022;12.968;2024-02-26T03:08:58;22.80;43.20
15384;DHT22;7790;53.022;12.968;2024-02-26T03:12:59;22.80;43.20
15384;DHT22;7790;53.022;12.968;2024-02-26T03:17:00;22.80;43.20
15384;DHT22;7790;53.022;12.968;2024-02-26T03:21:01;22.80;43.30
15384;DHT22;7790;53.022;12.968;2024-02-26T03:25:03;22.80;43.20
15384;DHT22;7790;53.022;12.968;2024-02-26T03:29:04;22.80;43.20
15384;DHT22;7790;53.022;12.968;2024-02-26T03:33:05;22.90;43.30
15384;DHT22;7790;53.022;12.968;2024-02-26T03:37:06;22.90;43.20
15384;DHT22;7790;53.022;12.968;2024-02-26T03:41:09;22.90;43.00
15384;DHT22;7790;53.022;12.968;2024-02-26T03:45:10;22.90;42.90
15384;DHT22;7790;53.022;12.968;2024-02-26T03:49:11;22.90;43.20
15384;DHT22;7790;53.022;12.968;2024-02-26T03:53:12;22.90;43.30
15384;DHT22;7790;53.022;12.968;2024-02-26T03:57:13;22.90;43.00
15384;DHT22;7790;53.022;12.968;2024-02-26T04:01:14;22.90;42.90
15384;DHT22;7790;53.022;12.968;2024-02-26T04:05:14;22.90;43.00
15384;DHT22;7790;53.022;12.968;2024-02-26T04:09:15;22.90;43.10
15384;DHT22;7790;53.022;12.968;2024-02-26T04:13:17;22.90;43.10
15384;DHT22;7790;53.022;12.968;2024-02-26T04:17:18;22.90;43.00
15384;DHT22;7790;53.022;12.968;2024-02-26T04:21:18;22.90;43.00
15384;DHT22;7790;53.022;12.968;2024-02-26T04:25:19;22.90;42.90
15384;DHT22;7790;53.022;12.968;2024-02-26T04:29:20;22.90;43.00
15384;DHT22;7790;53.022;12.968;2024-02-26T04:33:21;22.90;43.20
15384;DHT22;7790;53.022;12.968;2024-02-26T04:37:22;23.20;42.20
15384;DHT22;7790;53.022;12.968;2024-02-26T04:41:23;23.60;41.30
15384;DHT22;7790;53.022;12.968;2024-02-26T04:45:23;23.80;40.80
15384;DHT22;7790;53.022;12.968;2024-02-26T04:49:24;23.90;40.50
15384;DHT22;7790;53.022;12.968;2024-02-26T04:53:25;24.00;40.50
15384;DHT22;7790;53.022;12.968;2024-02-26T04:57:26;24.00;40.20
15384;DHT22;7790;53.022;12.968;2024-02-26T05:01:27;24.10;40.20
15384;DHT22;7790;53.022;12.968;2024-02-26T05:05:28;24.10;40.10
15384;DHT22;7790;53.022;12.968;2024-02-26T05:09:28;24.10;39.90
15384;DHT22;7790;53.022;12.968;2024-02-26T05:13:30;24.20;39.90
15384;DHT22;7790;53.022;12.968;2024-02-26T05:17:31;24.20;39.70
15384;DHT22;7790;53.022;12.968;2024-02-26T05:21:31;24.30;39.80
15384;DHT22;7790;53.022;12.968;2024-02-26T05:25:32;24.30;39.70
15384;DHT22;7790;53.022;12.968;2024-02-26T05:29:33;24.30;39.60
15384;DHT22;7790;53.022;12.968;2024-02-26T05:33:34;24.30;39.50
15384;DHT22;7790;53.022;12.968;2024-02-26T05:37:34;24.30;39.50
15384;DHT22;7790;53.022;12.968;2024-02-26T05:41:35;23.60;38.30
15384;DHT22;7790;53.022;12.968;2024-02-26T05:45:36;22.60;39.80
15384;DHT22;7790;53.022;12.968;2024-02-26T05:49:37;22.70;40.70
15384;DHT22;7790;53.022;12.968;2024-02-26T05:53:38;22.80;40.60
15384;DHT22;7790;53.022;12.968;2024-02-26T05:57:39;22.90;40.50
15384;DHT22;7790;53.022;12.968;2024-02-26T06:01:40;22.90;40.40
15384;DHT22;7790;53.022;12.968;2024-02-26T06:05:42;23.00;40.40
15384;DHT22;7790;53.022;12.968;2024-02-26T06:09:43;23.00;40.20
15384;DHT22;7790;53.022;12.968;2024-02-26T06:13:44;23.00;40.20
15384;DHT22;7790;53.022;12.968;2024-02-26T06:17:45;23.10;40.10
15384;DHT22;7790;53.022;12.968;2024-02-26T06:21:46;23.10;40.00
15384;DHT22;7790;53.022;12.968;2024-02-26T06:25:47;23.20;40.00
15384;DHT22;7790;53.022;12.968;2024-02-26T06:29:48;23.20;40.00
15384;DHT22;7790;53.022;12.968;2024-02-26T06:33:49;23.20;40.00
15384;DHT22;7790;53.022;12.968;2024-02-26T06:37:50;23.20;40.10
15384;DHT22;7790;53.022;12.968;2024-02-26T06:41:53;23.10;40.10
15384;DHT22;7790;53.022;12.968;2024-02-26T06:46:01;23.10;40.20
15384;DHT22;7790;53.022;12.968;2024-02-26T06:50:01;23.10;40.60
15384;DHT22;7790;53.022;12.968;2024-02-26T06:54:02;23.10;40.10
15384;DHT22;7790;53.022;12.968;2024-02-26T06:58:03;23.10;40.10
15384;DHT22;7790;53.022;12.968;2024-02-26T07:02:04;23.20;40.10
15384;DHT22;7790;53.022;12.968;2024-02-26T07:06:05;23.20;39.90
15384;DHT22;7790;53.022;12.968;2024-02-26T07:10:06;23.30;43.40
15384;DHT22;7790;53.022;12.968;2024-02-26T07:14:08;23.20;42.40
15384;DHT22;7790;53.022;12.968;2024-02-26T07:18:09;23.20;42.10
15384;DHT22;7790;53.022;12.968;2024-02-26T07:22:11;23.30;41.70
15384;DHT22;7790;53.022;12.968;2024-02-26T07:26:11;23.10;41.60
15384;DHT22;7790;53.022;12.968;2024-02-26T07:30:13;23.00;41.60
15384;DHT22;7790;53.022;12.968;2024-02-26T07:34:14;22.90;41.80
15384;DHT22;7790;53.022;12.968;2024-02-26T07:38:15;22.90;41.70
15384;DHT22;7790;53.022;12.968;2024-02-26T07:42:15;22.90;41.50
15384;DHT22;7790;53.022;12.968;2024-02-26T07:46:16;23.00;41.20
15384;DHT22;7790;53.022;12.968;2024-02-26T07:50:17;23.10;41.20
15384;DHT22;7790;53.022;12.968;2024-02-26T07:54:18;23.20;41.00
15384;DHT22;7790;53.022;12.968;2024-02-26T07:58:19;23.20;40.90
15384;DHT22;7790;53.022;12.968;2024-02-26T08:02:21;23.20;40.90
15384;DHT22;7790;53.022;12.968;2024-02-26T08:06:23;23.20;41.00
15384;DHT22;7790;53.022;12.968;2024-02-26T08:10:25;23.20;41.20
15384;DHT22;7790;53.022;12.968;2024-02-26T08:14:26;23.30;41.00
15384;DHT22;7790;53.022;12.968;2024-02-26T08:18:26;23.30;41.20
15384;DHT22;7790;53.022;12.968;2024-02-26T08:22:27;23.20;41.30
15384;DHT22;7790;53.022;12.968;2024-02-26T08:26:28;23.20;41.40
15384;DHT22;7790;53.022;12.968;2024-02-26T08:30:29;23.30;41.40
15384;DHT22;7790;53.022;12.968;2024-02-26T08:34:30;23.20;42.20
15384;DHT22;7790;53.022;12.968;2024-02-26T08:38:31;23.20;41.90
15384;DHT22;7790;53.022;12.968;2024-02-26T08:42:32;23.20;42.00
15384;DHT22;7790;53.022;12.968;2024-02-26T08:46:33;23.20;41.60
15384;DHT22;7790;53.022;12.968;2024-02-26T08:50:33;23.30;41.40
15384;DHT22;7790;53.022;12.968;2024-02-26T08:54:34;23.20;41.40
15384;DHT22;7790;53.022;12.968;2024-02-26T08:58:35;23.30;41.70
15384;DHT22;7790;53.022;12.968;2024-02-26T09:02:36;23.20;41.20
15384;DHT22;7790;53.022;12.968;2024-02-26T09:06:39;23.10;41.10
15384;DHT22;7790;53.022;12.968;2024-02-26T09:10:40;23.10;41.00
15384;DHT22;7790;53.022;12.968;2024-02-26T09:14:40;23.40;40.80
15384;DHT22;7790;53.022;12.968;2024-02-26T09:18:41;23.30;40.90
15384;DHT22;7790;53.022;12.968;2024-02-26T09:22:42;23.30;41.00
15384;DHT22;7790;53.022;12.968;2024-02-26T09:26:43;23.30;41.00
15384;DHT22;7790;53.022;12.968;2024-02-26T09:30:44;23.40;41.00
15384;DHT22;7790;53.022;12.968;2024-02-26T09:34:45;23.40;40.90
15384;DHT22;7790;53.022;12.968;2024-02-26T09:38:46;23.40;41.00
15384;DHT22;7790;53.022;12.968;2024-02-26T09:42:47;23.50;40.90
15384;DHT22;7790;53.022;12.968;2024-02-26T09:46:48;23.50;40.90
15384;DHT22;7790;53.022;12.968;2024-02-26T09:50:50;23.50;40.80
15384;DHT22;7790;53.022;12.968;2024-02-26T09:54:51;23.50;40.80
15384;DHT22;7790;53.022;12.968;2024-02-26T09:58:54;23.50;40.50
15384;DHT22;7790;53.022;12.968;2024-02-26T10:02:58;23.50;40.70
15384;DHT22;7790;53.022;12.968;2024-02-26T10:06:59;23.30;40.80
15384;DHT22;7790;53.022;12.968;2024-02-26T10:11:01;23.20;41.00
15384;DHT22;7790;53.022;12.968;2024-02-26T10:15:02;23.10;41.20
15384;DHT22;7790;53.022;12.968;2024-02-26T10:19:03;23.00;41.20
15384;DHT22;7790;53.022;12.968;2024-02-26T10:23:04;23.10;41.10
15384;DHT22;7790;53.022;12.968;2024-02-26T10:27:05;23.10;41.00
15384;DHT22;7790;53.022;12.968;2024-02-26T10:31:06;23.20;40.80
15384;DHT22;7790;53.022;12.968;2024-02-26T10:35:10;23.30;40.70
15384;DHT22;7790;53.022;12.968;2024-02-26T10:39:14;23.30;40.50
15384;DHT22;7790;53.022;12.968;2024-02-26T10:43:15;23.40;40.50
15384;DHT22;7790;53.022;12.968;2024-02-26T10:47:16;23.50;40.30
15384;DHT22;7790;53.022;12.968;2024-02-26T10:51:36;23.50;40.20
15384;DHT22;7790;53.022;12.968;2024-02-26T10:55:38;23.50;40.20
15384;DHT22;7790;53.022;12.968;2024-02-26T10:59:39;23.50;40.10
15384;DHT22;7790;53.022;12.968;2024-02-26T11:03:42;23.50;40.20
15384;DHT22;7790;53.022;12.968;2024-02-26T11:07:43;23.60;40.10
15384;DHT22;7790;53.022;12.968;2024-02-26T11:11:45;23.60;39.90
15384;DHT22;7790;53.022;12.968;2024-02-26T11:15:50;23.50;39.90
15384;DHT22;7790;53.022;12.968;2024-02-26T11:19:53;23.40;40.30
15384;DHT22;7790;53.022;12.968;2024-02-26T11:23:56;23.30;40.20
15384;DHT22;7790;53.022;12.968;2024-02-26T11:28:02;23.20;40.50
15384;DHT22;7790;53.022;12.968;2024-02-26T11:32:05;23.30;40.60
15384;DHT22;7790;53.022;12.968;2024-02-26T11:36:10;23.30;40.50
15384;DHT22;7790;53.022;12.968;2024-02-26T11:40:13;23.30;40.40
15384;DHT22;7790;53.022;12.968;2024-02-26T11:44:28;23.40;40.20
15384;DHT22;7790;53.022;12.968;2024-02-26T11:48:30;23.40;40.30
15384;DHT22;7790;53.022;12.968;2024-02-26T11:52:31;23.40;40.20
15384;DHT22;7790;53.022;12.968;2024-02-26T11:56:34;23.40;40.20
15384;DHT22;7790;53.022;12.968;2024-02-26T12:00:35;23.50;40.00
15384;DHT22;7790;53.022;12.968;2024-02-26T12:04:36;23.50;39.70
15384;DHT22;7790;53.022;12.968;2024-02-26T12:08:38;23.50;39.60
15384;DHT22;7790;53.022;12.968;2024-02-26T12:12:39;23.40;39.60
15384;DHT22;7790;53.022;12.968;2024-02-26T12:16:40;23.30;39.60
15384;DHT22;7790;53.022;12.968;2024-02-26T12:20:45;23.20;39.60
15384;DHT22;7790;53.022;12.968;2024-02-26T12:24:47;23.10;39.90
15384;DHT22;7790;53.022;12.968;2024-02-26T12:28:48;23.10;40.00
15384;DHT22;7790;53.022;12.968;2024-02-26T12:32:50;23.20;39.90
15384;DHT22;7790;53.022;12.968;2024-02-26T12:36:52;23.30;39.80
15384;DHT22;7790;53.022;12.968;2024-02-26T12:40:54;23.30;39.60
15384;DHT22;7790;53.022;12.968;2024-02-26T12:44:55;23.30;39.60
15384;DHT22;7790;53.022;12.968;2024-02-26T12:48:57;23.30;39.50
15384;DHT22;7790;53.022;12.968;2024-02-26T12:52:59;23.30;39.40
15384;DHT22;7790;53.022;12.968;2024-02-26T12:57:00;23.30;39.40
15384;DHT22;7790;53.022;12.968;2024-02-26T13:01:02;23.30;39.30
15384;DHT22;7790;53.022;12.968;2024-02-26T13:05:05;23.20;39.40
15384;DHT22;7790;53.022;12.968;2024-02-26T13:09:07;23.00;39.50
15384;DHT22;7790;53.022;12.968;2024-02-26T13:13:09;22.90;39.60
15384;DHT22;7790;53.022;12.968;2024-02-26T13:17:10;22.90;39.90
15384;DHT22;7790;53.022;12.968;2024-02-26T13:21:15;23.00;39.70
15384;DHT22;7790;53.022;12.968;2024-02-26T13:25:20;22.90;39.80
15384;DHT22;7790;53.022;12.968;2024-02-26T13:29:22;23.00;39.70
15384;DHT22;7790;53.022;12.968;2024-02-26T13:33:32;23.20;39.60
15384;DHT22;7790;53.022;12.968;2024-02-26T13:37:34;23.20;39.60
15384;DHT22;7790;53.022;12.968;2024-02-26T13:41:35;23.20;39.70
15384;DHT22;7790;53.022;12.968;2024-02-26T13:45:37;23.20;39.60
15384;DHT22;7790;53.022;12.968;2024-02-26T13:49:40;23.10;39.70
15384;DHT22;7790;53.022;12.968;2024-02-26T13:53:41;23.00;39.70
15384;DHT22;7790;53.022;12.968;2024-02-26T13:57:42;22.90;39.80
15384;DHT22;7790;53.022;12.968;2024-02-26T14:01:43;22.80;40.00
15384;DHT22;7790;53.022;12.968;2024-02-26T14:05:44;22.80;40.10
15384;DHT22;7790;53.022;12.968;2024-02-26T14:09:45;22.80;40.00
15384;DHT22;7790;53.022;12.968;2024-02-26T14:13:46;22.90;39.90
15384;DHT22;7790;53.022;12.968;2024-02-26T14:17:48;23.00;39.90
15384;DHT22;7790;53.022;12.968;2024-02-26T14:21:54;23.00;39.80
15384;DHT22;7790;53.022;12.968;2024-02-26T14:25:55;23.00;39.70
15384;DHT22;7790;53.022;12.968;2024-02-26T14:29:56;23.10;39.60
15384;DHT22;7790;53.022;12.968;2024-02-26T14:33:57;23.20;39.50
15384;DHT22;7790;53.022;12.968;2024-02-26T14:37:57;23.20;39.50
15384;DHT22;7790;53.022;12.968;2024-02-26T14:42:02;23.10;39.60
15384;DHT22;7790;53.022;12.968;2024-02-26T14:46:03;23.00;39.60
15384;DHT22;7790;53.022;12.968;2024-02-26T14:50:04;22.90;39.70
15384;DHT22;7790;53.022;12.968;2024-02-26T14:54:05;22.80;39.80
15384;DHT22;7790;53.022;12.968;2024-02-26T14:58:06;22.70;39.90
15384;DHT22;7790;53.022;12.968;2024-02-26T15:02:07;22.80;40.00
15384;DHT22;7790;53.022;12.968;2024-02-26T15:06:10;22.80;39.90
15384;DHT22;7790;53.022;12.968;2024-02-26T15:10:11;22.80;39.80
15384;DHT22;7790;53.022;12.968;2024-02-26T15:14:13;22.80;40.00
15384;DHT22;7790;53.022;12.968;2024-02-26T15:18:14;22.90;39.80
15384;DHT22;7790;53.022;12.968;2024-02-26T15:22:16;22.90;39.80
15384;DHT22;7790;53.022;12.968;2024-02-26T15:26:18;22.90;40.00
15384;DHT22;7790;53.022;12.968;2024-02-26T15:30:19;22.80;40.10
15384;DHT22;7790;53.022;12.968;2024-02-26T15:34:19;22.70;40.10
15384;DHT22;7790;53.022;12.968;2024-02-26T15:38:20;22.60;40.30
15384;DHT22;7790;53.022;12.968;2024-02-26T15:42:21;22.50;40.30
15384;DHT22;7790;53.022;12.968;2024-02-26T15:46:23;22.50;40.60
15384;DHT22;7790;53.022;12.968;2024-02-26T15:50:24;22.60;40.40
15384;DHT22;7790;53.022;12.968;2024-02-26T15:54:25;22.60;40.40
15384;DHT22;7790;53.022;12.968;2024-02-26T15:58:26;22.70;40.30
15384;DHT22;7790;53.022;12.968;2024-02-26T16:02:27;22.70;40.20
15384;DHT22;7790;53.022;12.968;2024-02-26T16:06:36;22.80;40.00
15384;DHT22;7790;53.022;12.968;2024-02-26T16:10:38;22.80;40.20
15384;DHT22;7790;53.022;12.968;2024-02-26T16:18:47;22.70;40.00
15384;DHT22;7790;53.022;12.968;2024-02-26T16:22:48;22.60;40.10
15384;DHT22;7790;53.022;12.968;2024-02-26T16:26:49;22.50;40.30
15384;DHT22;7790;53.022;12.968;2024-02-26T16:30:50;22.40;40.40
15384;DHT22;7790;53.022;12.968;2024-02-26T16:34:51;22.40;40.40
15384;DHT22;7790;53.022;12.968;2024-02-26T16:38:52;22.40;40.50
15384;DHT22;7790;53.022;12.968;2024-02-26T16:42:52;22.50;40.60
15384;DHT22;7790;53.022;12.968;2024-02-26T16:46:53;22.50;40.50
15384;DHT22;7790;53.022;12.968;2024-02-26T16:50:54;22.50;40.60
15384;DHT22;7790;53.022;12.968;2024-02-26T16:54:55;22.60;40.60
15384;DHT22;7790;53.022;12.968;2024-02-26T16:58:57;22.70;40.70
15384;DHT22;7790;53.022;12.968;2024-02-26T17:02:57;22.70;40.70
15384;DHT22;7790;53.022;12.968;2024-02-26T17:07:01;22.80;40.70
15384;DHT22;7790;53.022;12.968;2024-02-26T17:11:02;22.70;40.80
15384;DHT22;7790;53.022;12.968;2024-02-26T17:15:05;22.70;41.00
15384;DHT22;7790;53.022;12.968;2024-02-26T17:19:06;22.60;40.80
15384;DHT22;7790;53.022;12.968;2024-02-26T17:23:07;22.50;41.10
15384;DHT22;7790;53.022;12.968;2024-02-26T17:27:08;22.50;41.30
15384;DHT22;7790;53.022;12.968;2024-02-26T17:31:09;22.40;41.30
15384;DHT22;7790;53.022;12.968;2024-02-26T17:35:11;22.40;41.70
15384;DHT22;7790;53.022;12.968;2024-02-26T17:39:15;22.40;41.70
15384;DHT22;7790;53.022;12.968;2024-02-26T17:43:19;22.40;41.50
15384;DHT22;7790;53.022;12.968;2024-02-26T17:47:20;22.50;41.50
15384;DHT22;7790;53.022;12.968;2024-02-26T17:51:20;22.50;41.50
15384;DHT22;7790;53.022;12.968;2024-02-26T17:55:22;22.50;41.60
15384;DHT22;7790;53.022;12.968;2024-02-26T17:59:23;22.40;41.50
15384;DHT22;7790;53.022;12.968;2024-02-26T18:03:24;22.40;41.70
15384;DHT22;7790;53.022;12.968;2024-02-26T18:07:25;22.30;41.70
15384;DHT22;7790;53.022;12.968;2024-02-26T18:11:26;22.40;41.70
15384;DHT22;7790;53.022;12.968;2024-02-26T18:15:30;22.50;41.90
15384;DHT22;7790;53.022;12.968;2024-02-26T18:19:31;22.40;41.70
15384;DHT22;7790;53.022;12.968;2024-02-26T18:23:31;22.50;41.70
15384;DHT22;7790;53.022;12.968;2024-02-26T18:27:32;22.50;41.60
15384;DHT22;7790;53.022;12.968;2024-02-26T18:31:35;22.60;41.60
15384;DHT22;7790;53.022;12.968;2024-02-26T18:35:36;22.60;41.50
15384;DHT22;7790;53.022;12.968;2024-02-26T18:39:39;22.60;41.50
15384;DHT22;7790;53.022;12.968;2024-02-26T18:43:40;22.60;41.50
15384;DHT22;7790;53.022;12.968;2024-02-26T18:47:41;22.60;41.50
15384;DHT22;7790;53.022;12.968;2024-02-26T18:51:42;22.60;41.50
15384;DHT22;7790;53.022;12.968;2024-02-26T18:55:43;22.60;41.60
15384;DHT22;7790;53.022;12.968;2024-02-26T18:59:43;22.50;41.50
15384;DHT22;7790;53.022;12.968;2024-02-26T19:03:46;22.40;41.80
15384;DHT22;7790;53.022;12.968;2024-02-26T19:07:47;22.40;41.80
15384;DHT22;7790;53.022;12.968;2024-02-26T19:11:48;22.40;41.90
15384;DHT22;7790;53.022;12.968;2024-02-26T19:15:52;22.40;41.70
15384;DHT22;7790;53.022;12.968;2024-02-26T19:19:53;22.50;41.70
15384;DHT22;7790;53.022;12.968;2024-02-26T19:23:54;22.50;41.70
15384;DHT22;7790;53.022;12.968;2024-02-26T19:27:54;22.60;41.60
15384;DHT22;7790;53.022;12.968;2024-02-26T19:31:55;22.70;41.40
15384;DHT22;7790;53.022;12.968;2024-02-26T19:35:56;22.90;41.20
15384;DHT22;7790;53.022;12.968;2024-02-26T19:39:57;23.10;41.10
15384;DHT22;7790;53.022;12.968;2024-02-26T19:44:01;23.00;41.10
15384;DHT22;7790;53.022;12.968;2024-02-26T19:48:02;22.90;41.20
15384;DHT22;7790;53.022;12.968;2024-02-26T19:52:03;22.70;41.30
15384;DHT22;7790;53.022;12.968;2024-02-26T19:56:04;22.60;41.30
15384;DHT22;7790;53.022;12.968;2024-02-26T20:00:05;22.40;41.50
15384;DHT22;7790;53.022;12.968;2024-02-26T20:04:12;22.30;41.60
15384;DHT22;7790;53.022;12.968;2024-02-26T20:08:14;22.30;41.70
15384;DHT22;7790;53.022;12.968;2024-02-26T20:12:15;22.10;42.50
15384;DHT22;7790;53.022;12.968;2024-02-26T20:16:16;21.80;43.10
15384;DHT22;7790;53.022;12.968;2024-02-26T20:20:17;21.60;43.00
15384;DHT22;7790;53.022;12.968;2024-02-26T20:24:19;21.50;42.80
15384;DHT22;7790;53.022;12.968;2024-02-26T20:28:20;21.50;42.90
15384;DHT22;7790;53.022;12.968;2024-02-26T20:32:21;21.60;42.40
15384;DHT22;7790;53.022;12.968;2024-02-26T20:36:22;21.60;42.30
15384;DHT22;7790;53.022;12.968;2024-02-26T20:40:23;21.50;42.20
15384;DHT22;7790;53.022;12.968;2024-02-26T20:44:24;21.50;42.20
15384;DHT22;7790;53.022;12.968;2024-02-26T20:48:24;21.40;42.20
15384;DHT22;7790;53.022;12.968;2024-02-26T20:52:25;21.30;42.20
15384;DHT22;7790;53.022;12.968;2024-02-26T20:56:27;21.20;42.30
15384;DHT22;7790;53.022;12.968;2024-02-26T21:00:27;21.20;42.10
15384;DHT22;7790;53.022;12.968;2024-02-26T21:04:28;21.20;42.20
15384;DHT22;7790;53.022;12.968;2024-02-26T21:08:31;21.30;42.10
15384;DHT22;7790;53.022;12.968;2024-02-26T21:12:32;21.50;41.90
15384;DHT22;7790;53.022;12.968;2024-02-26T21:16:33;21.70;41.60
15384;DHT22;7790;53.022;12.968;2024-02-26T21:20:34;21.80;41.50
15384;DHT22;7790;53.022;12.968;2024-02-26T21:24:35;21.90;41.40
15384;DHT22;7790;53.022;12.968;2024-02-26T21:28:35;22.00;41.30
15384;DHT22;7790;53.022;12.968;2024-02-26T21:32:37;22.00;41.30
15384;DHT22;7790;53.022;12.968;2024-02-26T21:36:41;22.10;41.20
15384;DHT22;7790;53.022;12.968;2024-02-26T21:40:42;22.10;41.10
15384;DHT22;7790;53.022;12.968;2024-02-26T21:44:43;22.20;41.20
15384;DHT22;7790;53.022;12.968;2024-02-26T21:48:44;22.20;41.10
15384;DHT22;7790;53.022;12.968;2024-02-26T21:52:45;22.30;41.00
15384;DHT22;7790;53.022;12.968;2024-02-26T21:56:46;22.40;41.00
15384;DHT22;7790;53.022;12.968;2024-02-26T22:00:46;22.40;40.90
15384;DHT22;7790;53.022;12.968;2024-02-26T22:04:47;22.50;40.90
15384;DHT22;7790;53.022;12.968;2024-02-26T22:08:48;22.50;40.80
15384;DHT22;7790;53.022;12.968;2024-02-26T22:12:49;22.60;40.80
15384;DHT22;7790;53.022;12.968;2024-02-26T22:16:50;22.60;40.70
15384;DHT22;7790;53.022;12.968;2024-02-26T22:20:51;22.60;40.80
15384;DHT22;7790;53.022;12.968;2024-02-26T22:24:51;22.50;41.00
15384;DHT22;7790;53.022;12.968;2024-02-26T22:28:52;22.40;41.10
15384;DHT22;7790;53.022;12.968;2024-02-26T22:32:53;22.30;41.20
15384;DHT22;7790;53.022;12.968;2024-02-26T22:36:54;22.30;41.40
15384;DHT22;7790;53.022;12.968;2024-02-26T22:40:55;22.30;41.20
15384;DHT22;7790;53.022;12.968;2024-02-26T22:44:56;22.30;41.20
15384;DHT22;7790;53.022;12.968;2024-02-26T22:48:57;22.40;41.20
15384;DHT22;7790;53.022;12.968;2024-02-26T22:52:58;22.40;41.10
15384;DHT22;7790;53.022;12.968;2024-02-26T22:56:58;22.40;41.00
15384;DHT22;7790;53.022;12.968;2024-02-26T23:00:59;22.50;40.90
15384;DHT22;7790;53.022;12.968;2024-02-26T23:05:00;22.50;40.90
15384;DHT22;7790;53.022;12.968;2024-02-26T23:09:01;22.60;40.90
15384;DHT22;7790;53.022;12.968;2024-02-26T23:13:02;22.60;40.90
15384;DHT22;7790;53.022;12.968;2024-02-26T23:17:03;22.70;40.80
15384;DHT22;7790;53.022;12.968;2024-02-26T23:21:05;22.70;40.90
15384;DHT22;7790;53.022;12.968;2024-02-26T23:25:09;22.70;40.90
15384;DHT22;7790;53.022;12.968;2024-02-26T23:29:11;22.70;40.90
15384;DHT22;7790;53.022;12.968;2024-02-26T23:33:11;22.70;40.80
15384;DHT22;7790;53.022;12.968;2024-02-26T23:37:12;22.70;40.70
15384;DHT22;7790;53.022;12.968;2024-02-26T23:41:13;22.70;40.70
15384;DHT22;7790;53.022;12.968;2024-02-26T23:45:14;22.80;40.80
15384;DHT22;7790;53.022;12.968;2024-02-26T23:49:15;22.80;40.70
15384;DHT22;7790;53.022;12.968;2024-02-26T23:53:16;22.70;40.70
15384;DHT22;7790;53.022;12.968;2024-02-26T23:57:17;22.60;40.90
